Time;durP1;ratioP1;P1;durP2;ratioP2;P2;SDS_P1;SDS_P2;PMS_P1;PMS_P2;Temp;Humidity;BMP_temperature;BMP_pressure;BME280_temperature;BME280_humidity;BME280_pressure;Samples;Min_cycle;Max_cycle;Signal;HPM_P1;HPM_P2
2023/05/09 00:01:17;;;;;;;;;;;;;;;;;;5072237;28;19932;-55
2023/05/09 00:03:44;;;;;;;;;;;;;;;;;;5068692;28;19951;-55
2023/05/09 00:06:10;;;;;;;;;;;;;;;;;;5046843;28;19917;-55
2023/05/09 00:08:36;;;;;;;;;;;;;;;;;;5068762;28;19914;-55
2023/05/09 00:11:03;;;;;;;;;;;;;;;;;;5070517;28;19908;-55
2023/05/09 00:13:29;;;;;;;;;;;;;;;;;;5067259;28;19916;-55
2023/05/09 00:15:56;;;;;;;;;;;;;;;;;;5070237;28;19909;-55
2023/05/09 00:18:22;;;;;;;;;;;;;;;;;;5066195;28;20554;-55
2023/05/09 00:20:48;;;;;;;;;;;;;;;;;;5064691;28;20050;-55
2023/05/09 00:23:14;;;;;;;;;;;;;;;;;;5068644;28;19939;-55
2023/05/09 00:25:40;;;;;;;;;;;;;;;;;;5070961;28;19955;-55
2023/05/09 00:28:06;;;;;;;;;;;;;;;;;;5068403;28;20364;-55
2023/05/09 00:30:32;;;;;;;;;;;;;;;;;;5067464;28;19916;-55
2023/05/09 00:32:58;;;;;;;;;;;;;;;;;;5068501;28;19963;-55
2023/05/09 00:35:24;;;;;;;;;;;;;;;;;;5067975;28;19955;-55
2023/05/09 00:37:50;;;;;;;;;;;;;;;;;;5069890;28;19947;-55
2023/05/09 00:40:16;;;;;;;;;;;;;;;;;;5068699;28;20340;-55
2023/05/09 00:42:42;;;;;;;;;;;;;;;;;;5071069;28;19965;-55
2023/05/09 00:45:08;;;;;;;;;;;;;;;;;;5064093;28;19908;-55
2023/05/09 00:47:34;;;;;;;;;;;;;;;;;;5069927;28;19935;-55
2023/05/09 00:50:00;;;;;;;;;;;;;;;;;;5066300;28;19908;-55
2023/05/09 00:52:26;;;;;;;;;;;;;;;;;;5070175;28;20321;-55
2023/05/09 00:54:53;;;;;;;;;;;;;;;;;;5067423;28;19916;-55
2023/05/09 00:57:19;;;;;;;;;;;;;;;;;;5069474;28;19912;-55
2023/05/09 00:59:45;;;;;;;;;;;;;;;;;;5070674;28;19913;-55
2023/05/09 01:02:11;;;;;;;;;;;;;;;;;;5049815;28;20321;-55
2023/05/09 01:04:37;;;;;;;;;;;;;;;;;;5064684;28;19919;-56
2023/05/09 01:07:04;;;;;;;;;;;;;;;;;;5068125;28;19959;-55
2023/05/09 01:09:30;;;;;;;;;;;;;;;;;;5066704;28;19944;-56
2023/05/09 01:11:56;;;;;;;;;;;;;;;;;;5070634;28;20345;-55
2023/05/09 01:14:22;;;;;;;;;;;;;;;;;;5062900;28;19948;-55
2023/05/09 01:16:48;;;;;;;;;;;;;;;;;;5069450;28;20053;-56
2023/05/09 01:19:14;;;;;;;;;;;;;;;;;;5066497;28;20443;-56
2023/05/09 01:21:40;;;;;;;;;;;;;;;;;;5067571;28;19960;-56
2023/05/09 01:24:06;;;;;;;;;;;;;;;;;;5065821;28;20031;-56
2023/05/09 01:26:32;;;;;;;;;;;;;;;;;;5069311;28;19920;-55
2023/05/09 01:28:58;;;;;;;;;;;;;;;;;;5068384;28;20005;-55
2023/05/09 01:31:24;;;;;;;;;;;;;;;;;;5068609;28;19915;-55
2023/05/09 01:33:50;;;;;;;;;;;;;;;;;;5065429;28;20011;-55
2023/05/09 01:36:17;;;;;;;;;;;;;;;;;;5063887;28;19912;-55
2023/05/09 01:38:42;;;;;;;;;;;;;;;;;;5065707;28;19916;-56
2023/05/09 01:41:08;;;;;;;;;;;;;;;;;;5068897;28;19915;-55
2023/05/09 01:43:34;;;;;;;;;;;;;;;;;;5067795;28;20004;-55
2023/05/09 01:46:00;;;;;;;;;;;;;;;;;;5069507;28;19959;-55
2023/05/09 01:48:27;;;;;;;;;;;;;;;;;;5056796;28;19959;-55
2023/05/09 01:50:53;;;;;;;;;;;;;;;;;;5068511;28;19923;-55
2023/05/09 01:53:19;;;;;;;;;;;;;;;;;;5066862;28;19959;-55
2023/05/09 01:55:45;;;;;;;;;;;;;;;;;;5069318;28;19962;-55
2023/05/09 01:58:11;;;;;;;;;;;;;;;;;;5064519;28;19943;-54
2023/05/09 02:00:37;;;;;;;;;;;;;;;;;;5066711;28;20370;-55
2023/05/09 02:03:03;;;;;;;;;;;;;;;;;;5062538;28;20257;-54
2023/05/09 02:05:29;;;;;;;;;;;;;;;;;;5065673;28;19908;-55
2023/05/09 02:07:57;;;;;;;;;;;;;;;;;;5069382;28;20271;-55
2023/05/09 02:10:24;;;;;;;;;;;;;;;;;;5066650;28;20031;-55
2023/05/09 02:12:50;;;;;;;;;;;;;;;;;;5068090;28;19916;-55
2023/05/09 02:15:16;;;;;;;;;;;;;;;;;;5063303;28;20465;-55
2023/05/09 02:17:42;;;;;;;;;;;;;;;;;;5069304;28;20006;-55
2023/05/09 02:20:12;;;;;;;;;;;;;;;;;;5065363;28;20041;-55
2023/05/09 02:22:38;;;;;;;;;;;;;;;;;;5067871;28;19908;-55
2023/05/09 02:25:04;;;;;;;;;;;;;;;;;;5067358;28;19948;-55
2023/05/09 02:27:30;;;;;;;;;;;;;;;;;;5066269;28;19913;-55
2023/05/09 02:29:57;;;;;;;;;;;;;;;;;;5062267;28;20462;-55
2023/05/09 02:32:23;;;;;;;;;;;;;;;;;;5060298;28;19934;-55
2023/05/09 02:34:49;;;;;;;;;;;;;;;;;;5059708;28;19924;-55
2023/05/09 02:37:15;;;;;;;;;;;;;;;;;;5067660;28;20349;-55
2023/05/09 02:39:41;;;;;;;;;;;;;;;;;;5065070;28;19998;-55
2023/05/09 02:42:07;;;;;;;;;;;;;;;;;;5069211;28;20467;-55
2023/05/09 02:44:33;;;;;;;;;;;;;;;;;;5064031;28;19908;-55
2023/05/09 02:46:59;;;;;;;;;;;;;;;;;;5063428;28;20163;-55
2023/05/09 02:49:25;;;;;;;;;;;;;;;;;;5063303;28;19952;-55
2023/05/09 02:51:51;;;;;;;;;;;;;;;;;;5043075;28;20306;-55
2023/05/09 02:54:17;;;;;;;;;;;;;;;;;;5067092;28;19959;-55
2023/05/09 02:56:43;;;;;;;;;;;;;;;;;;5067699;28;19908;-54
2023/05/09 02:59:09;;;;;;;;;;;;;;;;;;5061400;28;19948;-54
2023/05/09 03:01:35;;;;;;;;;;;;;;;;;;5067359;28;19995;-54
2023/05/09 03:04:01;;;;;;;;;;;;;;;;;;5063215;28;19920;-54
2023/05/09 03:06:27;;;;;;;;;;;;;;;;;;5064511;28;19962;-54
2023/05/09 03:08:53;;;;;;;;;;;;;;;;;;5065729;28;19951;-54
2023/05/09 03:11:19;;;;;;;;;;;;;;;;;;5067791;28;20114;-54
2023/05/09 03:13:45;;;;;;;;;;;;;;;;;;5065507;28;19912;-55
2023/05/09 03:16:11;;;;;;;;;;;;;;;;;;5064659;28;20076;-54
2023/05/09 03:18:37;;;;;;;;;;;;;;;;;;5064316;28;20646;-54
2023/05/09 03:21:02;;;;;;;;;;;;;;;;;;5064050;28;19959;-54
2023/05/09 03:23:28;;;;;;;;;;;;;;;;;;5065272;28;19970;-54
2023/05/09 03:25:54;;;;;;;;;;;;;;;;;;5067602;28;19943;-54
2023/05/09 03:28:20;;;;;;;;;;;;;;;;;;5067857;28;20752;-54
2023/05/09 03:30:46;;;;;;;;;;;;;;;;;;5066594;28;19936;-54
2023/05/09 03:33:12;;;;;;;;;;;;;;;;;;5065999;28;20353;-54
2023/05/09 03:35:38;;;;;;;;;;;;;;;;;;5063636;28;19974;-54
2023/05/09 03:38:04;;;;;;;;;;;;;;;;;;5067165;28;19904;-54
2023/05/09 03:40:30;;;;;;;;;;;;;;;;;;5063347;28;20332;-54
2023/05/09 03:42:56;;;;;;;;;;;;;;;;;;5050690;28;19951;-54
2023/05/09 03:45:22;;;;;;;;;;;;;;;;;;5064074;28;20013;-54
2023/05/09 03:47:48;;;;;;;;;;;;;;;;;;5062587;28;19947;-54
2023/05/09 03:50:14;;;;;;;;;;;;;;;;;;5058000;28;20019;-54
2023/05/09 03:52:40;;;;;;;;;;;;;;;;;;5067643;28;19959;-54
2023/05/09 03:55:06;;;;;;;;;;;;;;;;;;5066168;28;19954;-55
2023/05/09 03:57:32;;;;;;;;;;;;;;;;;;5067185;28;20013;-54
2023/05/09 03:59:58;;;;;;;;;;;;;;;;;;5063252;28;20035;-54
2023/05/09 04:02:24;;;;;;;;;;;;;;;;;;5067698;28;20323;-54
2023/05/09 04:04:51;;;;;;;;;;;;;;;;;;5057740;28;19962;-54
2023/05/09 04:07:18;;;;;;;;;;;;;;;;;;5067019;28;20386;-54
2023/05/09 04:09:44;;;;;;;;;;;;;;;;;;5062112;28;19931;-54
2023/05/09 04:12:10;;;;;;;;;;;;;;;;;;5066367;28;19967;-54
2023/05/09 04:14:36;;;;;;;;;;;;;;;;;;5065614;28;19985;-54
2023/05/09 04:17:02;;;;;;;;;;;;;;;;;;5067372;28;19919;-54
2023/05/09 04:19:28;;;;;;;;;;;;;;;;;;5061619;28;19908;-54
2023/05/09 04:21:54;;;;;;;;;;;;;;;;;;5060154;28;19916;-54
2023/05/09 04:24:21;;;;;;;;;;;;;;;;;;5064395;28;20360;-54
2023/05/09 04:26:46;;;;;;;;;;;;;;;;;;5067477;28;19916;-54
2023/05/09 04:29:13;;;;;;;;;;;;;;;;;;5067329;28;19958;-55
2023/05/09 04:31:39;;;;;;;;;;;;;;;;;;5068621;28;19997;-54
2023/05/09 04:34:05;;;;;;;;;;;;;;;;;;5064568;28;20559;-55
2023/05/09 04:36:32;;;;;;;;;;;;;;;;;;5068130;28;19908;-55
2023/05/09 04:38:58;;;;;;;;;;;;;;;;;;5071764;28;19915;-55
2023/05/09 04:41:24;;;;;;;;;;;;;;;;;;5068713;28;19958;-54
2023/05/09 04:43:51;;;;;;;;;;;;;;;;;;5061627;28;19942;-55
2023/05/09 04:46:17;;;;;;;;;;;;;;;;;;5069400;28;20320;-54
2023/05/09 04:48:43;;;;;;;;;;;;;;;;;;5067439;28;19948;-55
2023/05/09 04:51:09;;;;;;;;;;;;;;;;;;5066922;28;19975;-55
2023/05/09 04:53:35;;;;;;;;;;;;;;;;;;5070179;28;20345;-54
2023/05/09 04:56:01;;;;;;;;;;;;;;;;;;5066760;28;19951;-60
2023/05/09 04:58:27;;;;;;;;;;;;;;;;;;5061193;28;20408;-55
2023/05/09 05:00:53;;;;;;;;;;;;;;;;;;5067930;28;19995;-54
2023/05/09 05:03:19;;;;;;;;;;;;;;;;;;5068137;28;20427;-55
2023/05/09 05:05:45;;;;;;;;;;;;;;;;;;5065079;28;19940;-54
2023/05/09 05:08:11;;;;;;;;;;;;;;;;;;5067536;28;20394;-54
2023/05/09 05:10:37;;;;;;;;;;;;;;;;;;5069880;28;19912;-54
2023/05/09 05:13:03;;;;;;;;;;;;;;;;;;5062862;28;19962;-54
2023/05/09 05:15:29;;;;;;;;;;;;;;;;;;5066741;28;20280;-54
2023/05/09 05:17:55;;;;;;;;;;;;;;;;;;5062352;28;19971;-55
2023/05/09 05:20:21;;;;;;;;;;;;;;;;;;5065962;28;20217;-59
2023/05/09 05:22:47;;;;;;;;;;;;;;;;;;5070048;28;19962;-59
2023/05/09 05:25:13;;;;;;;;;;;;;;;;;;5067046;28;19940;-58
2023/05/09 05:27:39;;;;;;;;;;;;;;;;;;5064412;28;20007;-58
2023/05/09 05:30:06;;;;;;;;;;;;;;;;;;5060091;28;19909;-56
2023/05/09 05:32:32;;;;;;;;;;;;;;;;;;5063663;28;20056;-58
2023/05/09 05:34:58;;;;;;;;;;;;;;;;;;5064261;28;20433;-58
2023/05/09 05:37:24;;;;;;;;;;;;;;;;;;5066990;28;20356;-58
2023/05/09 05:39:50;;;;;;;;;;;;;;;;;;5067569;28;19912;-57
2023/05/09 05:42:17;;;;;;;;;;;;;;;;;;5066304;28;19993;-58
2023/05/09 05:44:43;;;;;;;;;;;;;;;;;;5068062;28;19923;-58
2023/05/09 05:47:09;;;;;;;;;;;;;;;;;;5061544;28;20123;-57
2023/05/09 05:49:35;;;;;;;;;;;;;;;;;;5066540;28;19912;-57
2023/05/09 05:52:01;;;;;;;;;;;;;;;;;;5064358;28;19991;-53
2023/05/09 05:54:27;;;;;;;;;;;;;;;;;;5069009;28;19912;-53
2023/05/09 05:56:53;;;;;;;;;;;;;;;;;;5067365;28;19954;-52
2023/05/09 05:59:19;;;;;;;;;;;;;;;;;;5067621;28;20669;-53
2023/05/09 06:01:45;;;;;;;;;;;;;;;;;;5063917;28;19955;-52
2023/05/09 06:04:11;;;;;;;;;;;;;;;;;;5065397;28;19912;-53
2023/05/09 06:06:37;;;;;;;;;;;;;;;;;;5067347;28;20011;-53
2023/05/09 06:09:03;;;;;;;;;;;;;;;;;;5066164;28;19952;-62
2023/05/09 06:11:29;;;;;;;;;;;;;;;;;;5064645;28;20001;-52
2023/05/09 06:13:55;;;;;;;;;;;;;;;;;;5065326;28;19963;-53
2023/05/09 06:16:21;;;;;;;;;;;;;;;;;;5063158;28;20003;-53
2023/05/09 06:18:47;;;;;;;;;;;;;;;;;;5059549;28;19908;-53
2023/05/09 06:21:13;;;;;;;;;;;;;;;;;;5062712;28;20017;-53
2023/05/09 06:23:39;;;;;;;;;;;;;;;;;;5056500;28;19951;-52
2023/05/09 06:26:05;;;;;;;;;;;;;;;;;;5062956;28;19959;-52
2023/05/09 06:28:31;;;;;;;;;;;;;;;;;;5068906;28;19916;-52
2023/05/09 06:30:57;;;;;;;;;;;;;;;;;;5043897;28;19994;-52
2023/05/09 06:33:23;;;;;;;;;;;;;;;;;;5066409;28;19960;-52
2023/05/09 06:35:49;;;;;;;;;;;;;;;;;;5073372;28;19963;-62
2023/05/09 06:38:15;;;;;;;;;;;;;;;;;;5061979;28;19919;-52
2023/05/09 06:40:41;;;;;;;;;;;;;;;;;;5061691;28;20333;-52
2023/05/09 06:43:07;;;;;;;;;;;;;;;;;;5061732;28;19970;-52
2023/05/09 06:45:34;;;;;;;;;;;;;;;;;;5067010;28;19951;-52
2023/05/09 06:47:59;;;;;;;;;;;;;;;;;;5056572;28;19908;-52
2023/05/09 06:50:25;;;;;;;;;;;;;;;;;;5067387;28;20360;-52
2023/05/09 06:52:51;;;;;;;;;;;;;;;;;;5066975;28;19944;-52
2023/05/09 06:55:17;;;;;;;;;;;;;;;;;;5068835;28;19948;-53
2023/05/09 06:57:43;;;;;;;;;;;;;;;;;;5067125;28;19981;-52
2023/05/09 07:00:10;;;;;;;;;;;;;;;;;;5060184;28;19919;-53
2023/05/09 07:02:40;;;;;;;;;;;;;;;;;;5062651;28;20279;-53
2023/05/09 07:05:06;;;;;;;;;;;;;;;;;;5058009;28;19912;-53
2023/05/09 07:07:32;;;;;;;;;;;;;;;;;;5067750;28;19954;-52
2023/05/09 07:10:00;;;;;;;;;;;;;;;;;;5047385;28;19952;-52
2023/05/09 07:12:26;;;;;;;;;;;;;;;;;;5062041;28;19930;-53
2023/05/09 07:14:52;;;;;;;;;;;;;;;;;;5067111;28;19912;-53
2023/05/09 07:17:18;;;;;;;;;;;;;;;;;;5062643;28;19954;-53
2023/05/09 07:19:43;;;;;;;;;;;;;;;;;;5067339;28;19955;-53
2023/05/09 07:22:09;;;;;;;;;;;;;;;;;;5063065;28;19956;-53
2023/05/09 07:24:35;;;;;;;;;;;;;;;;;;5063245;28;19952;-53
2023/05/09 07:27:01;;;;;;;;;;;;;;;;;;5065891;28;19963;-53
2023/05/09 07:29:28;;;;;;;;;;;;;;;;;;5068146;28;19908;-53
2023/05/09 07:31:54;;;;;;;;;;;;;;;;;;5064519;28;19974;-53
2023/05/09 07:34:20;;;;;;;;;;;;;;;;;;5072610;28;19997;-52
2023/05/09 07:36:46;;;;;;;;;;;;;;;;;;5063825;28;19964;-53
2023/05/09 07:39:12;;;;;;;;;;;;;;;;;;5069208;28;19965;-53
2023/05/09 07:41:38;;;;;;;;;;;;;;;;;;5064126;28;19944;-53
2023/05/09 07:44:03;;;;;;;;;;;;;;;;;;5066177;28;19936;-53
2023/05/09 07:46:29;;;;;;;;;;;;;;;;;;5062316;28;19951;-53
2023/05/09 07:48:55;;;;;;;;;;;;;;;;;;5062098;28;19959;-53
2023/05/09 07:51:21;;;;;;;;;;;;;;;;;;5062128;28;19959;-53
2023/05/09 07:53:47;;;;;;;;;;;;;;;;;;5061698;28;19970;-53
2023/05/09 07:56:13;;;;;;;;;;;;;;;;;;5064244;28;19908;-53
2023/05/09 07:58:39;;;;;;;;;;;;;;;;;;5060393;28;20367;-54
2023/05/09 08:01:05;;;;;;;;;;;;;;;;;;5060185;28;19916;-53
2023/05/09 08:03:31;;;;;;;;;;;;;;;;;;5057517;28;20466;-53
2023/05/09 08:05:57;;;;;;;;;;;;;;;;;;5056411;28;19973;-52
2023/05/09 08:08:23;;;;;;;;;;;;;;;;;;5066080;28;19951;-53
2023/05/09 08:10:49;;;;;;;;;;;;;;;;;;5067735;28;19966;-53
2023/05/09 08:13:15;;;;;;;;;;;;;;;;;;5061972;28;20366;-53
2023/05/09 08:15:41;;;;;;;;;;;;;;;;;;5065644;28;20423;-52
2023/05/09 08:18:07;;;;;;;;;;;;;;;;;;5064771;28;19912;-60
2023/05/09 08:20:35;;;;;;;;;;;;;;;;;;5061488;28;19912;-53
2023/05/09 08:23:00;;;;;;;;;;;;;;;;;;5064798;28;19921;-52
2023/05/09 08:25:26;;;;;;;;;;;;;;;;;;5063620;28;20403;-53
2023/05/09 08:27:52;;;;;;;;;;;;;;;;;;5064680;28;20376;-53
2023/05/09 08:30:18;;;;;;;;;;;;;;;;;;5064394;28;19957;-53
2023/05/09 08:32:44;;;;;;;;;;;;;;;;;;5065534;28;19955;-53
2023/05/09 08:35:11;;;;;;;;;;;;;;;;;;5061938;28;20013;-53
2023/05/09 08:37:36;;;;;;;;;;;;;;;;;;5067152;28;19912;-53
2023/05/09 08:40:03;;;;;;;;;;;;;;;;;;5064782;28;20438;-53
2023/05/09 08:42:29;;;;;;;;;;;;;;;;;;5063841;28;19944;-53
2023/05/09 08:44:55;;;;;;;;;;;;;;;;;;5062823;28;19985;-61
2023/05/09 08:47:21;;;;;;;;;;;;;;;;;;5066433;28;20334;-53
2023/05/09 08:49:48;;;;;;;;;;;;;;;;;;5064103;28;20481;-53
2023/05/09 08:52:14;;;;;;;;;;;;;;;;;;5065702;28;19908;-53
2023/05/09 08:54:40;;;;;;;;;;;;;;;;;;5057600;28;19916;-52
2023/05/09 08:57:06;;;;;;;;;;;;;;;;;;5063611;28;20368;-52
2023/05/09 08:59:33;;;;;;;;;;;;;;;;;;5064203;28;19947;-53
2023/05/09 09:01:59;;;;;;;;;;;;;;;;;;5064860;28;20246;-52
2023/05/09 09:04:25;;;;;;;;;;;;;;;;;;5062695;28;19958;-53
2023/05/09 09:06:51;;;;;;;;;;;;;;;;;;5064072;28;19908;-53
2023/05/09 09:09:17;;;;;;;;;;;;;;;;;;5062261;28;20485;-52
2023/05/09 09:11:43;;;;;;;;;;;;;;;;;;5065975;28;20026;-53
2023/05/09 09:14:10;;;;;;;;;;;;;;;;;;5062846;28;19912;-53
2023/05/09 09:16:36;;;;;;;;;;;;;;;;;;5060568;28;20430;-53
2023/05/09 09:19:02;;;;;;;;;;;;;;;;;;5067508;28;20586;-53
2023/05/09 09:21:28;;;;;;;;;;;;;;;;;;5069784;28;20391;-53
2023/05/09 09:23:55;;;;;;;;;;;;;;;;;;5064840;28;19912;-52
2023/05/09 09:26:21;;;;;;;;;;;;;;;;;;5068925;28;19916;-53
2023/05/09 09:28:47;;;;;;;;;;;;;;;;;;5070703;28;19919;-52
2023/05/09 09:31:13;;;;;;;;;;;;;;;;;;5048912;28;19943;-53
2023/05/09 09:33:39;;;;;;;;;;;;;;;;;;5068908;28;19959;-53
2023/05/09 09:36:06;;;;;;;;;;;;;;;;;;5061269;28;19956;-52
2023/05/09 09:38:32;;;;;;;;;;;;;;;;;;5067711;28;19947;-52
2023/05/09 09:40:58;;;;;;;;;;;;;;;;;;5076527;28;19947;-53
2023/05/09 09:43:24;;;;;;;;;;;;;;;;;;5067684;28;20423;-52
2023/05/09 09:45:50;;;;;;;;;;;;;;;;;;5055003;28;19958;-52
2023/05/09 09:48:16;;;;;;;;;;;;;;;;;;5067060;28;19926;-52
2023/05/09 09:50:42;;;;;;;;;;;;;;;;;;5067701;28;20322;-53
2023/05/09 09:53:08;;;;;;;;;;;;;;;;;;5070759;28;19952;-52
2023/05/09 09:55:34;;;;;;;;;;;;;;;;;;5061451;28;19913;-52
2023/05/09 09:58:00;;;;;;;;;;;;;;;;;;5059362;28;19946;-53
2023/05/09 10:00:27;;;;;;;;;;;;;;;;;;5062059;28;19912;-53
2023/05/09 10:02:53;;;;;;;;;;;;;;;;;;5065276;28;19951;-53
2023/05/09 10:05:20;;;;;;;;;;;;;;;;;;5063177;28;20364;-54
2023/05/09 10:07:46;;;;;;;;;;;;;;;;;;5064589;28;19935;-53
2023/05/09 10:10:12;;;;;;;;;;;;;;;;;;5065333;28;19987;-52
2023/05/09 10:12:38;;;;;;;;;;;;;;;;;;5062098;28;19940;-53
2023/05/09 10:15:04;;;;;;;;;;;;;;;;;;5061482;28;19920;-53
2023/05/09 10:17:33;;;;;;;;;;;;;;;;;;5064942;28;19955;-52
2023/05/09 10:19:59;;;;;;;;;;;;;;;;;;5061898;28;20395;-53
2023/05/09 10:22:25;;;;;;;;;;;;;;;;;;5064275;28;19912;-53
2023/05/09 10:24:51;;;;;;;;;;;;;;;;;;5062530;28;19959;-53
2023/05/09 10:27:17;;;;;;;;;;;;;;;;;;5060108;28;19959;-53
2023/05/09 10:29:43;;;;;;;;;;;;;;;;;;5060107;28;19912;-53
2023/05/09 10:32:10;;;;;;;;;;;;;;;;;;5061939;28;19912;-52
2023/05/09 10:34:36;;;;;;;;;;;;;;;;;;5065533;28;20005;-52
2023/05/09 10:37:02;;;;;;;;;;;;;;;;;;5059306;28;19986;-53
2023/05/09 10:39:28;;;;;;;;;;;;;;;;;;5060458;28;19908;-52
2023/05/09 10:41:54;;;;;;;;;;;;;;;;;;5062527;28;19916;-53
2023/05/09 10:44:20;;;;;;;;;;;;;;;;;;5065744;28;20046;-53
2023/05/09 10:46:46;;;;;;;;;;;;;;;;;;5064981;28;19977;-54
2023/05/09 10:49:12;;;;;;;;;;;;;;;;;;5060645;28;20035;-53
2023/05/09 10:51:38;;;;;;;;;;;;;;;;;;5063729;28;19908;-53
2023/05/09 10:54:04;;;;;;;;;;;;;;;;;;5064069;28;19990;-53
2023/05/09 10:56:38;;;;;;;;;;;;;;;;;;5064231;28;19916;-53
2023/05/09 10:59:04;;;;;;;;;;;;;;;;;;5046674;28;19916;-53
2023/05/09 11:01:33;;;;;;;;;;;;;;;;;;5065054;28;19916;-53
2023/05/09 11:03:59;;;;;;;;;;;;;;;;;;5059238;28;19912;-53
2023/05/09 11:06:25;;;;;;;;;;;;;;;;;;5061422;28;19912;-53
2023/05/09 11:08:51;;;;;;;;;;;;;;;;;;5045686;28;19908;-53
2023/05/09 11:11:18;;;;;;;;;;;;;;;;;;5063649;28;19955;-53
2023/05/09 11:13:45;;;;;;;;;;;;;;;;;;5061850;28;19916;-53
2023/05/09 11:16:11;;;;;;;;;;;;;;;;;;5062504;28;19940;-53
2023/05/09 11:18:37;;;;;;;;;;;;;;;;;;5058062;28;19919;-56
2023/05/09 11:21:03;;;;;;;;;;;;;;;;;;5043793;28;19942;-53
2023/05/09 11:23:32;;;;;;;;;;;;;;;;;;5060874;28;19912;-53
2023/05/09 11:25:58;;;;;;;;;;;;;;;;;;5063105;28;20344;-53
2023/05/09 11:28:24;;;;;;;;;;;;;;;;;;5063061;28;19912;-53
2023/05/09 11:30:50;;;;;;;;;;;;;;;;;;5061626;28;19943;-53
2023/05/09 11:33:17;;;;;;;;;;;;;;;;;;5055558;28;19920;-54
2023/05/09 11:35:43;;;;;;;;;;;;;;;;;;5061694;28;19916;-53
2023/05/09 11:38:09;;;;;;;;;;;;;;;;;;5062559;28;19919;-54
2023/05/09 11:40:36;;;;;;;;;;;;;;;;;;5062750;28;20003;-54
2023/05/09 11:43:02;;;;;;;;;;;;;;;;;;5064011;28;19966;-53
2023/05/09 11:45:28;;;;;;;;;;;;;;;;;;5067705;28;20329;-53
2023/05/09 11:47:54;;;;;;;;;;;;;;;;;;5065049;28;19915;-53
2023/05/09 11:50:20;;;;;;;;;;;;;;;;;;5064740;28;19908;-54
2023/05/09 11:52:46;;;;;;;;;;;;;;;;;;5067154;28;20360;-54
2023/05/09 11:55:12;;;;;;;;;;;;;;;;;;5070369;28;20006;-54
2023/05/09 11:57:38;;;;;;;;;;;;;;;;;;5064004;28;19999;-54
2023/05/09 12:00:05;;;;;;;;;;;;;;;;;;5067861;28;19970;-54
2023/05/09 12:02:31;;;;;;;;;;;;;;;;;;5069621;28;19912;-53
2023/05/09 12:04:57;;;;;;;;;;;;;;;;;;5066744;28;20348;-53
2023/05/09 12:07:23;;;;;;;;;;;;;;;;;;5062176;28;19959;-53
2023/05/09 12:09:49;;;;;;;;;;;;;;;;;;5062770;28;19998;-54
2023/05/09 12:12:19;;;;;;;;;;;;;;;;;;5062404;28;19916;-54
2023/05/09 12:14:45;;;;;;;;;;;;;;;;;;5066190;28;20343;-54
2023/05/09 12:17:11;;;;;;;;;;;;;;;;;;5062872;28;19919;-54
2023/05/09 12:19:37;;;;;;;;;;;;;;;;;;5064343;28;20410;-57
2023/05/09 12:22:04;;;;;;;;;;;;;;;;;;5062705;28;19944;-53
2023/05/09 12:24:30;;;;;;;;;;;;;;;;;;5061212;28;19909;-54
2023/05/09 12:26:56;;;;;;;;;;;;;;;;;;5050883;28;19916;-54
2023/05/09 12:29:22;;;;;;;;;;;;;;;;;;5060350;28;20034;-54
2023/05/09 12:31:48;;;;;;;;;;;;;;;;;;5061096;28;20774;-54
2023/05/09 12:34:14;;;;;;;;;;;;;;;;;;5048043;28;20357;-54
2023/05/09 12:36:40;;;;;;;;;;;;;;;;;;5065952;28;19904;-54
2023/05/09 12:39:08;;;;;;;;;;;;;;;;;;5062126;28;19920;-54
2023/05/09 12:41:34;;;;;;;;;;;;;;;;;;5066389;28;19912;-53
2023/05/09 12:44:00;;;;;;;;;;;;;;;;;;5065004;28;19974;-54
2023/05/09 12:46:26;;;;;;;;;;;;;;;;;;5063347;28;19909;-54
2023/05/09 12:48:52;;;;;;;;;;;;;;;;;;5061537;28;19966;-54
2023/05/09 12:51:19;;;;;;;;;;;;;;;;;;5064368;28;19912;-53
2023/05/09 12:53:45;;;;;;;;;;;;;;;;;;5063333;28;19912;-53
2023/05/09 12:56:11;;;;;;;;;;;;;;;;;;5062310;28;20375;-54
2023/05/09 12:58:37;;;;;;;;;;;;;;;;;;5061992;28;19944;-53
2023/05/09 13:01:03;;;;;;;;;;;;;;;;;;5058570;28;19994;-54
2023/05/09 13:03:36;;;;;;;;;;;;;;;;;;5056045;28;19995;-53
2023/05/09 13:06:03;;;;;;;;;;;;;;;;;;5059912;28;20881;-53
2023/05/09 13:08:29;;;;;;;;;;;;;;;;;;5062201;28;20038;-54
2023/05/09 13:10:56;;;;;;;;;;;;;;;;;;5056346;28;19974;-53
2023/05/09 13:13:22;;;;;;;;;;;;;;;;;;5062117;28;19970;-54
2023/05/09 13:15:48;;;;;;;;;;;;;;;;;;5061102;28;20480;-53
2023/05/09 13:18:14;;;;;;;;;;;;;;;;;;5061964;28;20007;-54
2023/05/09 13:20:40;;;;;;;;;;;;;;;;;;5059963;28;19916;-54
2023/05/09 13:23:09;;;;;;;;;;;;;;;;;;5037881;28;19950;-53
2023/05/09 13:25:35;;;;;;;;;;;;;;;;;;5062797;28;19936;-54
2023/05/09 13:28:02;;;;;;;;;;;;;;;;;;5061041;28;19909;-53
2023/05/09 13:30:28;;;;;;;;;;;;;;;;;;5066465;28;19959;-53
2023/05/09 13:32:54;;;;;;;;;;;;;;;;;;5069559;28;19959;-54
2023/05/09 13:35:20;;;;;;;;;;;;;;;;;;5073096;28;19952;-53
2023/05/09 13:37:46;;;;;;;;;;;;;;;;;;5068824;28;19916;-55
2023/05/09 13:40:11;;;;;;;;;;;;;;;;;;5078693;28;19952;-54
2023/05/09 13:42:37;;;;;;;;;;;;;;;;;;5065094;28;19947;-54
2023/05/09 13:45:03;;;;;;;;;;;;;;;;;;5066319;28;19939;-54
2023/05/09 13:47:29;;;;;;;;;;;;;;;;;;5067811;28;19943;-54
2023/05/09 13:49:55;;;;;;;;;;;;;;;;;;5060935;28;20340;-54
2023/05/09 13:52:22;;;;;;;;;;;;;;;;;;5061659;28;19916;-54
2023/05/09 13:54:48;;;;;;;;;;;;;;;;;;5058498;28;20363;-54
2023/05/09 13:57:13;;;;;;;;;;;;;;;;;;5066358;28;19967;-54
2023/05/09 13:59:40;;;;;;;;;;;;;;;;;;5066506;28;19912;-54
2023/05/09 14:02:06;;;;;;;;;;;;;;;;;;5062603;28;19912;-54
2023/05/09 14:04:32;;;;;;;;;;;;;;;;;;5060556;28;20386;-54
2023/05/09 14:06:58;;;;;;;;;;;;;;;;;;5060232;28;20340;-54
2023/05/09 14:09:25;;;;;;;;;;;;;;;;;;5063699;28;19908;-54
2023/05/09 14:11:51;;;;;;;;;;;;;;;;;;5062811;28;19905;-55
2023/05/09 14:14:17;;;;;;;;;;;;;;;;;;5066890;28;19944;-54
2023/05/09 14:16:43;;;;;;;;;;;;;;;;;;5061216;28;20017;-54
2023/05/09 14:19:10;;;;;;;;;;;;;;;;;;5064643;28;20529;-55
2023/05/09 14:21:36;;;;;;;;;;;;;;;;;;5065122;28;19942;-54
2023/05/09 14:24:11;;;;;;;;;;;;;;;;;;5117263;27;20400;-53
2023/05/09 14:26:36;;;;;;;;;;;;;;;;;;5108167;28;19927;-53
2023/05/09 14:29:02;;;;;;;;;;;;;;;;;;5107004;28;20288;-53
2023/05/09 14:31:28;;;;;;;;;;;;;;;;;;5102545;28;20427;-53
2023/05/09 14:33:54;;;;;;;;;;;;;;;;;;5104908;28;20514;-53
2023/05/09 14:36:20;;;;;;;;;;;;;;;;;;5105198;28;19917;-53
2023/05/09 14:38:46;;;;;;;;;;;;;;;;;;5105905;28;20388;-54
2023/05/09 14:41:12;;;;;;;;;;;;;;;;;;5106590;28;20010;-57
2023/05/09 14:43:38;;;;;;;;;;;;;;;;;;5105793;28;19970;-58
2023/05/09 14:46:04;;;;;;;;;;;;;;;;;;5106277;28;20427;-53
2023/05/09 14:48:30;;;;;;;;;;;;;;;;;;5103814;28;20308;-52
2023/05/09 14:50:56;;;;;;;;;;;;;;;;;;5104977;28;19943;-53
2023/05/09 14:53:22;;;;;;;;;;;;;;;;;;5103978;28;20603;-53
2023/05/09 14:55:48;;;;;;;;;;;;;;;;;;5097880;28;20000;-55
2023/05/09 14:58:14;;;;;;;;;;;;;;;;;;5100762;28;20360;-55
2023/05/09 15:00:40;;;;;;;;;;;;;;;;;;5101924;28;20007;-56
2023/05/09 15:03:06;;;;;;;;;;;;;;;;;;5103207;28;19915;-55
2023/05/09 15:05:32;;;;;;;;;;;;;;;;;;5099055;28;19944;-56
2023/05/09 15:07:58;;;;;;;;;;;;;;;;;;5099363;28;19955;-56
2023/05/09 15:10:26;;;;;;;;;;;;;;;;;;5103880;28;19955;-57
2023/05/09 15:12:52;;;;;;;;;;;;;;;;;;5097329;28;19916;-57
2023/05/09 15:15:18;;;;;;;;;;;;;;;;;;5100560;28;19950;-58
2023/05/09 15:17:44;;;;;;;;;;;;;;;;;;5099107;28;19920;-57
2023/05/09 15:20:10;;;;;;;;;;;;;;;;;;5100962;28;20380;-57
2023/05/09 15:22:36;;;;;;;;;;;;;;;;;;5099521;28;19985;-57
2023/05/09 15:25:02;;;;;;;;;;;;;;;;;;5104272;28;20019;-56
2023/05/09 15:27:28;;;;;;;;;;;;;;;;;;5099771;28;19919;-57
2023/05/09 15:29:54;;;;;;;;;;;;;;;;;;5101268;28;20369;-58
2023/05/09 15:32:20;;;;;;;;;;;;;;;;;;5104132;28;20334;-58
2023/05/09 15:34:46;;;;;;;;;;;;;;;;;;5091102;28;19957;-58
2023/05/09 15:37:12;;;;;;;;;;;;;;;;;;5086044;28;19963;-57
2023/05/09 15:39:42;;;;;;;;;;;;;;;;;;5086134;28;20324;-57
2023/05/09 15:42:08;;;;;;;;;;;;;;;;;;5090147;28;19912;-57
2023/05/09 15:44:34;;;;;;;;;;;;;;;;;;5090660;28;19923;-57
2023/05/09 15:47:00;;;;;;;;;;;;;;;;;;5088167;28;19912;-58
2023/05/09 15:49:26;;;;;;;;;;;;;;;;;;5084930;28;20066;-57
2023/05/09 15:51:52;;;;;;;;;;;;;;;;;;5086145;28;19923;-57
2023/05/09 15:54:19;;;;;;;;;;;;;;;;;;5088230;28;20349;-58
2023/05/09 15:56:45;;;;;;;;;;;;;;;;;;5088708;28;19923;-57
2023/05/09 15:59:11;;;;;;;;;;;;;;;;;;5085452;28;19966;-57
2023/05/09 16:01:37;;;;;;;;;;;;;;;;;;5088348;28;21206;-58
2023/05/09 16:04:04;;;;;;;;;;;;;;;;;;5084631;28;19955;-57
2023/05/09 16:06:31;;;;;;;;;;;;;;;;;;5086891;28;19923;-57
2023/05/09 16:08:57;;;;;;;;;;;;;;;;;;5085248;28;19916;-58
2023/05/09 16:11:23;;;;;;;;;;;;;;;;;;5087660;28;19978;-56
2023/05/09 16:13:49;;;;;;;;;;;;;;;;;;5084304;28;19947;-57
2023/05/09 16:16:15;;;;;;;;;;;;;;;;;;5086798;28;20279;-56
2023/05/09 16:18:41;;;;;;;;;;;;;;;;;;5083154;28;20498;-57
2023/05/09 16:21:07;;;;;;;;;;;;;;;;;;5085068;28;19916;-57
2023/05/09 16:23:33;;;;;;;;;;;;;;;;;;5084805;28;20011;-57
2023/05/09 16:25:59;;;;;;;;;;;;;;;;;;5081987;28;19973;-63
2023/05/09 16:28:26;;;;;;;;;;;;;;;;;;5090718;28;19923;-59
2023/05/09 16:30:52;;;;;;;;;;;;;;;;;;5090108;28;20375;-61
2023/05/09 16:33:19;;;;;;;;;;;;;;;;;;5087809;28;19946;-59
2023/05/09 16:35:45;;;;;;;;;;;;;;;;;;5089278;28;20338;-61
2023/05/09 16:38:11;;;;;;;;;;;;;;;;;;5081854;28;19923;-58